createdAt,value
2023-03-16T00:01:21.866Z,2.10
2023-03-16T00:06:25.596Z,1.99
2023-03-16T00:11:30.608Z,1.96
2023-03-16T00:16:32.281Z,1.96
2023-03-16T00:21:34.001Z,1.98
2023-03-16T00:26:35.740Z,1.91
2023-03-16T00:31:38.019Z,1.88
2023-03-16T00:36:39.803Z,1.79
2023-03-16T00:41:41.559Z,1.81
2023-03-16T00:46:43.069Z,1.81
2023-03-16T00:51:44.455Z,1.83
2023-03-16T00:56:48.497Z,1.76
2023-03-16T01:02:00.268Z,1.77
2023-03-16T01:07:06.419Z,1.83
2023-03-16T01:12:11.483Z,1.82
2023-03-16T01:17:15.009Z,1.84
2023-03-16T01:22:17.069Z,1.85
2023-03-16T01:27:18.829Z,1.87
2023-03-16T01:32:23.249Z,1.94
2023-03-16T01:37:24.863Z,1.91
2023-03-16T01:42:26.418Z,1.92
2023-03-16T01:47:28.009Z,1.98
2023-03-16T01:52:33.673Z,1.96
2023-03-16T01:57:40.684Z,1.98
2023-03-16T02:02:44.602Z,1.89
2023-03-16T02:07:49.394Z,1.92
2023-03-16T02:12:51.382Z,1.90
2023-03-16T02:17:53.598Z,1.90
2023-03-16T02:22:55.834Z,1.91
2023-03-16T02:28:09.285Z,1.89
2023-03-16T02:33:12.540Z,1.90
2023-03-16T02:38:17.140Z,1.91
2023-03-16T02:43:34.935Z,1.94
2023-03-16T02:49:11.424Z,1.95
2023-03-16T02:54:13.852Z,1.86
2023-03-16T02:59:15.729Z,1.87
2023-03-16T03:04:22.085Z,1.89
2023-03-16T03:09:26.923Z,1.92
2023-03-16T03:14:28.741Z,1.89
2023-03-16T03:19:32.060Z,1.93
2023-03-16T03:24:36.464Z,1.94
2023-03-16T03:29:38.911Z,1.94
2023-03-16T03:34:40.512Z,1.93
2023-03-16T03:39:42.043Z,1.90
2023-03-16T03:44:44.760Z,1.87
2023-03-16T03:49:46.382Z,1.91
2023-03-16T03:54:49.430Z,1.91
2023-03-16T03:59:51.031Z,1.93
2023-03-16T04:04:52.757Z,1.90
2023-03-16T04:09:56.909Z,1.96
2023-03-16T04:14:58.507Z,1.96
2023-03-16T04:20:00.149Z,1.95
2023-03-16T04:25:02.656Z,1.99
2023-03-16T04:30:09.160Z,2.00
2023-03-16T04:35:13.656Z,2.03
2023-03-16T04:40:22.193Z,1.99
2023-03-16T04:45:23.928Z,2.00
2023-03-16T04:50:29.093Z,2.06
2023-03-16T04:55:30.990Z,2.03
2023-03-16T05:00:33.076Z,2.10
2023-03-16T05:05:34.722Z,2.05
2023-03-16T05:10:36.481Z,2.12
2023-03-16T05:15:38.265Z,2.10
2023-03-16T05:20:39.920Z,2.06
2023-03-16T05:25:41.337Z,2.10
2023-03-16T05:30:43.580Z,2.10
2023-03-16T05:35:44.995Z,2.16
2023-03-16T05:40:47.820Z,2.19
2023-03-16T05:45:49.301Z,2.23
2023-03-16T05:50:56.461Z,2.28
2023-03-16T05:55:58.535Z,2.29
2023-03-16T06:01:02.302Z,2.32
2023-03-16T06:06:11.418Z,2.40
2023-03-16T06:11:13.663Z,2.43
2023-03-16T06:16:19.246Z,2.49
2023-03-16T06:21:22.568Z,2.50
2023-03-16T06:26:24.189Z,2.57
2023-03-16T06:31:26.014Z,2.75
2023-03-16T06:36:27.781Z,2.85
2023-03-16T06:41:29.906Z,2.98
2023-03-16T06:46:32.812Z,3.00
2023-03-16T06:56:35.942Z,3.25
2023-03-16T07:01:37.730Z,3.33
2023-03-16T07:11:41.154Z,3.51
2023-03-16T07:16:42.880Z,3.74
2023-03-16T07:21:44.618Z,3.86
2023-03-16T07:31:48.207Z,4.11
2023-03-16T07:36:49.726Z,4.22
2023-03-16T07:41:51.069Z,4.59
2023-03-16T07:46:52.560Z,4.66
2023-03-16T07:51:54.094Z,4.83
2023-03-16T08:01:57.189Z,5.52
2023-03-16T08:06:58.716Z,5.51
2023-03-16T08:12:00.197Z,5.65
2023-03-16T08:22:05.824Z,6.23
2023-03-16T08:37:10.834Z,6.42
2023-03-16T08:42:12.368Z,6.94
2023-03-16T08:47:13.773Z,6.86
2023-03-16T08:57:17.038Z,6.75
2023-03-16T09:12:24.220Z,6.82
2023-03-16T09:17:28.255Z,6.96
2023-03-16T09:27:31.515Z,8.12
2023-03-16T09:32:36.887Z,8.80
2023-03-16T09:43:03.441Z,8.90
2023-03-16T09:48:05.982Z,8.76
2023-03-16T09:58:43.718Z,9.19
2023-03-16T10:04:02.488Z,8.97
2023-03-16T10:09:29.630Z,8.77
2023-03-16T10:20:25.450Z,8.54
2023-03-16T10:25:46.284Z,8.38
2023-03-16T10:30:58.805Z,8.47
2023-03-16T10:36:13.389Z,8.63
2023-03-16T10:41:20.340Z,8.76
2023-03-16T11:32:32.710Z,11.35
2023-03-16T12:30:39.825Z,12.12
2023-03-16T12:46:57.277Z,12.09
2023-03-16T12:52:05.493Z,12.01
2023-03-16T13:02:21.410Z,12.34
2023-03-16T13:07:27.156Z,12.28
